Main page
METAR-TAF:

METAR-TAF

Airports :

Nukus Airport

Nukus, Uzbekistan

latitude: 42-28-48N, longitude: 059-37-48E, elevation: 77 m

Current weather observation

The report was made 39 minutes ago, at 22:00 UTC
Wind 6 kt from the South
Temperature -2°C
Humidity 86%
Pressure 1026 hPa
Visibility 10 km or more
Overcast at a height of 3200 ft
light snow

METAR: UTNN 212200Z 19006KT 9999 -SN OVC032 M02/M04 Q1026 R33/CLRD60 NOSIG

Time: 03:39 (22:39 UTC)

Forecast

The report was made 5 hours and 39 minutes ago, at 17:00 UTC
Forecast valid from 21 at 18 UTC to 22 at 18 UTC
Wind 6 kt from the Southwest with gusts up to 16 kt
Visibility 10 km or more
Broken clouds at a height of 3000 ft
Temporary
from 21 at 23 UTC to 22 at 04 UTC
Visibility: 1100 m
Overcast at a height of 300 ft
snow, mist
Temporary
from 22 at 06 UTC to 22 at 12 UTC
Wind 10 kt from the West with gusts up to 20 kt

TAF: UTNN 211700Z 2118/2218 22006G16KT 9999 BKN030 TEMPO 2123/2204 1100 SN BR OVC003 TEMPO 2206/2212 27010G20KT

Weather observations and forecasts of more than 4000 airports (METAR and TAF reports).

The available stations are represented by yellow and red dots on the map.

Hover mouse over dot to see the name of the station.

Then click to see weather observations and forecasts.

To change the map : click on the green buttons with a black cross to zoom in, on the green button with a dash to zoom out, or on the green arrows for adjacent maps.


METAR-TAF: